createdAt,value
2018-09-08T00:00:31.269Z,23.45
2018-09-08T00:02:57.672Z,23.41
2018-09-08T00:05:24.022Z,23.42
2018-09-08T00:07:50.351Z,23.43
2018-09-08T00:10:16.716Z,23.43
2018-09-08T00:12:43.098Z,23.40
2018-09-08T00:15:09.432Z,23.40
2018-09-08T00:17:35.760Z,23.39
2018-09-08T00:20:02.115Z,23.39
2018-09-08T00:22:28.445Z,23.37
2018-09-08T00:24:54.775Z,23.34
2018-09-08T00:27:21.107Z,23.31
2018-09-08T00:29:47.509Z,23.34
2018-09-08T00:32:13.885Z,23.31
2018-09-08T00:34:40.282Z,23.31
2018-09-08T00:37:06.631Z,23.32
2018-09-08T00:39:33.004Z,23.31
2018-09-08T00:41:59.401Z,23.27
2018-09-08T00:44:25.780Z,23.27
2018-09-08T00:46:52.173Z,23.27
2018-09-08T00:49:18.512Z,23.26
2018-09-08T00:51:44.847Z,23.23
2018-09-08T00:54:11.208Z,23.23
2018-09-08T00:56:37.557Z,23.24
2018-09-08T00:59:03.887Z,23.19
2018-09-08T01:01:30.209Z,23.21
2018-09-08T01:03:56.563Z,23.17
2018-09-08T01:06:22.898Z,23.16
2018-09-08T01:08:49.238Z,23.20
2018-09-08T01:11:15.623Z,23.19
2018-09-08T01:13:41.935Z,23.15
2018-09-08T01:16:08.264Z,23.15
2018-09-08T01:18:34.587Z,23.14
2018-09-08T01:21:00.962Z,23.12
2018-09-08T01:23:27.288Z,23.15
2018-09-08T01:25:53.652Z,23.13
2018-09-08T01:28:20.019Z,23.13
2018-09-08T01:30:46.380Z,23.09
2018-09-08T01:33:12.712Z,23.09
2018-09-08T01:35:39.100Z,23.04
2018-09-08T01:38:05.461Z,23.04
2018-09-08T01:40:31.807Z,23.05
2018-09-08T01:42:58.200Z,23.03
2018-09-08T01:45:24.588Z,23.02
2018-09-08T01:47:50.920Z,22.99
2018-09-08T01:50:17.277Z,23.00
2018-09-08T01:52:43.596Z,22.98
2018-09-08T01:55:09.968Z,22.99
2018-09-08T01:57:36.329Z,22.99
2018-09-08T02:00:02.762Z,22.96
2018-09-08T02:02:29.114Z,22.96
2018-09-08T02:04:55.454Z,22.95
2018-09-08T02:07:21.784Z,22.94
2018-09-08T02:09:48.157Z,22.94
2018-09-08T02:12:14.517Z,22.91
2018-09-08T02:14:40.842Z,22.92
2018-09-08T02:17:07.194Z,22.91
2018-09-08T02:19:33.511Z,22.90
2018-09-08T02:21:59.836Z,22.88
2018-09-08T02:24:26.252Z,22.89
2018-09-08T02:26:52.607Z,22.88
2018-09-08T02:29:18.938Z,22.87
2018-09-08T02:31:45.307Z,22.87
2018-09-08T02:34:11.701Z,22.85
2018-09-08T02:36:38.167Z,22.85
2018-09-08T02:39:04.531Z,22.85
2018-09-08T02:41:30.859Z,22.84
2018-09-08T02:43:57.192Z,22.84
2018-09-08T02:46:23.665Z,22.82
2018-09-08T02:48:50.042Z,22.81
2018-09-08T02:51:16.423Z,22.81
2018-09-08T02:53:42.757Z,22.81
2018-09-08T02:56:09.121Z,22.81
2018-09-08T02:58:35.480Z,22.79
2018-09-08T03:01:01.851Z,22.78
2018-09-08T03:03:28.187Z,22.78
2018-09-08T03:05:54.495Z,22.75
2018-09-08T03:08:20.825Z,22.77
2018-09-08T03:10:47.718Z,22.76
2018-09-08T03:13:14.112Z,22.76
2018-09-08T03:15:40.449Z,22.73
2018-09-08T03:18:06.810Z,22.76
2018-09-08T03:20:33.139Z,22.74
2018-09-08T03:22:59.463Z,22.69
2018-09-08T03:25:25.828Z,22.75
2018-09-08T03:27:52.204Z,22.69
2018-09-08T03:30:18.560Z,22.66
2018-09-08T03:32:44.899Z,22.67
2018-09-08T03:35:11.806Z,22.67
2018-09-08T03:37:38.160Z,22.63
2018-09-08T03:40:04.556Z,22.65
2018-09-08T03:42:31.021Z,22.63
2018-09-08T03:44:57.365Z,22.63
2018-09-08T03:47:23.696Z,22.59
2018-09-08T03:49:50.036Z,22.60
2018-09-08T03:52:16.413Z,22.60
2018-09-08T03:54:42.752Z,22.56
2018-09-08T03:57:09.079Z,22.59
2018-09-08T03:59:35.443Z,22.56
2018-09-08T04:02:01.780Z,22.54
2018-09-08T04:04:28.287Z,22.55
2018-09-08T04:06:54.655Z,22.51
2018-09-08T04:09:21.025Z,22.56
2018-09-08T04:11:47.366Z,22.50
2018-09-08T04:14:13.728Z,22.54
2018-09-08T04:16:40.055Z,22.52
2018-09-08T04:19:06.394Z,22.55
2018-09-08T04:21:32.730Z,22.56
2018-09-08T04:23:59.177Z,22.61
2018-09-08T04:26:25.492Z,22.59
2018-09-08T04:28:51.826Z,22.61
2018-09-08T04:31:18.173Z,22.63
2018-09-08T04:33:44.513Z,22.67
2018-09-08T04:36:10.838Z,22.69
2018-09-08T04:38:37.171Z,22.71
2018-09-08T04:41:03.570Z,22.73
2018-09-08T04:43:29.887Z,22.80
2018-09-08T04:45:56.270Z,22.79
2018-09-08T04:48:22.633Z,22.79
2018-09-08T04:50:48.971Z,22.81
2018-09-08T04:53:15.385Z,22.81
2018-09-08T04:55:41.790Z,22.84
2018-09-08T04:58:08.131Z,22.85
2018-09-08T05:00:34.575Z,22.86
2018-09-08T05:03:00.937Z,22.86
2018-09-08T05:05:27.268Z,22.87
2018-09-08T05:07:53.632Z,22.85
2018-09-08T05:10:19.972Z,22.85
2018-09-08T05:12:46.357Z,22.85
2018-09-08T05:15:12.687Z,22.86
2018-09-08T05:17:39.056Z,22.83
2018-09-08T05:20:05.429Z,22.84
2018-09-08T05:22:31.761Z,22.84
2018-09-08T05:24:58.092Z,22.83
2018-09-08T05:27:24.460Z,22.85
2018-09-08T05:29:50.817Z,22.84
2018-09-08T05:32:17.152Z,22.83
2018-09-08T05:34:43.524Z,22.85
2018-09-08T05:37:09.895Z,22.85
2018-09-08T05:39:36.246Z,22.83
2018-09-08T05:42:02.605Z,22.86
2018-09-08T05:44:28.944Z,22.88
2018-09-08T05:46:55.303Z,22.89
2018-09-08T05:49:21.631Z,22.89
2018-09-08T05:51:47.996Z,22.90
2018-09-08T05:54:14.343Z,22.92
2018-09-08T05:56:40.668Z,22.96
2018-09-08T05:59:07.036Z,23.00
2018-09-08T06:01:33.359Z,23.01
2018-09-08T06:03:59.690Z,23.04
2018-09-08T06:06:26.071Z,23.07
2018-09-08T06:08:52.387Z,23.11
2018-09-08T06:11:18.780Z,23.13
2018-09-08T06:13:45.120Z,23.16
2018-09-08T06:16:11.486Z,23.18
2018-09-08T06:18:37.845Z,23.20
2018-09-08T06:21:04.264Z,23.24
2018-09-08T06:23:30.626Z,23.28
2018-09-08T06:25:56.961Z,23.30
2018-09-08T06:28:23.350Z,23.33
2018-09-08T06:30:49.699Z,23.33
2018-09-08T06:33:16.068Z,23.38
2018-09-08T06:35:42.430Z,23.41
2018-09-08T06:38:08.887Z,23.46
2018-09-08T06:40:35.216Z,23.49
2018-09-08T06:43:01.549Z,23.54
2018-09-08T06:45:27.918Z,23.57
2018-09-08T06:47:54.248Z,23.59
2018-09-08T06:50:20.591Z,23.62
2018-09-08T06:52:46.981Z,23.65
2018-09-08T06:55:13.312Z,23.69
2018-09-08T06:57:39.646Z,23.72
2018-09-08T07:00:05.970Z,23.73
2018-09-08T07:02:32.332Z,23.77
2018-09-08T07:04:58.741Z,23.78
2018-09-08T07:07:25.155Z,23.79
2018-09-08T07:09:51.528Z,23.80
2018-09-08T07:12:17.865Z,23.81
2018-09-08T07:14:44.221Z,23.79
2018-09-08T07:19:43.118Z,23.82
2018-09-08T07:22:09.611Z,23.82
2018-09-08T07:24:35.971Z,23.83
2018-09-08T07:27:02.299Z,23.84
2018-09-08T07:29:28.679Z,23.82
2018-09-08T07:31:55.020Z,23.83
2018-09-08T07:34:21.385Z,23.85
2018-09-08T07:36:47.729Z,23.85
2018-09-08T07:39:14.112Z,23.85
2018-09-08T07:41:40.443Z,23.86
2018-09-08T07:44:06.783Z,23.87
2018-09-08T07:46:33.120Z,23.86
2018-09-08T07:48:59.442Z,23.87
2018-09-08T07:51:25.815Z,23.90
2018-09-08T07:53:52.204Z,23.91
2018-09-08T07:56:18.555Z,23.90
2018-09-08T07:58:44.883Z,23.92
2018-09-08T08:01:11.249Z,23.95
2018-09-08T08:03:37.587Z,23.97
2018-09-08T08:06:03.952Z,23.97
2018-09-08T08:08:30.292Z,24.00
2018-09-08T08:10:56.667Z,24.02
2018-09-08T08:13:22.997Z,24.04
2018-09-08T08:15:49.364Z,24.03
2018-09-08T08:18:15.699Z,24.06
2018-09-08T08:20:42.082Z,24.08
2018-09-08T08:23:08.497Z,24.09
2018-09-08T08:25:34.897Z,24.12
2018-09-08T08:28:01.250Z,24.14
2018-09-08T08:30:27.623Z,24.14
2018-09-08T08:32:53.946Z,24.15
2018-09-08T08:35:20.276Z,24.18
2018-09-08T08:37:46.598Z,24.17
2018-09-08T08:40:12.964Z,24.16
2018-09-08T08:42:39.299Z,24.20
2018-09-08T08:45:05.633Z,24.22
2018-09-08T08:47:32.002Z,24.22
2018-09-08T08:49:58.385Z,24.21
2018-09-08T08:52:24.736Z,24.21
2018-09-08T08:54:51.051Z,24.22
2018-09-08T08:57:17.419Z,24.23
2018-09-08T08:59:43.747Z,24.22
2018-09-08T09:02:10.108Z,24.24
2018-09-08T09:04:36.485Z,24.25
2018-09-08T09:07:03.264Z,24.28
2018-09-08T09:09:29.212Z,24.26
2018-09-08T09:11:56.056Z,24.23
2018-09-08T09:14:22.016Z,24.30
2018-09-08T09:16:48.364Z,24.30
2018-09-08T09:19:14.740Z,24.31
2018-09-08T09:21:41.127Z,24.32
2018-09-08T09:24:07.541Z,24.34
2018-09-08T09:26:33.822Z,24.34
2018-09-08T09:29:00.175Z,24.33
2018-09-08T09:31:26.529Z,24.34
2018-09-08T09:33:52.899Z,24.35
2018-09-08T09:36:19.429Z,24.36
2018-09-08T09:38:45.775Z,24.38
2018-09-08T09:41:12.148Z,24.38
2018-09-08T09:43:38.517Z,24.38
2018-09-08T09:46:04.860Z,24.39
2018-09-08T09:48:31.286Z,24.39
2018-09-08T09:50:57.623Z,24.40
2018-09-08T09:53:23.980Z,24.41
2018-09-08T09:55:50.312Z,24.40
2018-09-08T09:58:16.673Z,24.42
2018-09-08T10:00:43.023Z,24.43
2018-09-08T10:03:09.403Z,24.42
2018-09-08T10:05:35.727Z,24.45
2018-09-08T10:08:02.067Z,24.41
2018-09-08T10:10:28.436Z,24.45
2018-09-08T10:12:54.789Z,24.45
2018-09-08T10:15:21.125Z,24.47
2018-09-08T10:17:47.495Z,24.48
2018-09-08T10:20:13.859Z,24.50
2018-09-08T10:22:40.196Z,24.50
2018-09-08T10:25:06.529Z,24.50
2018-09-08T10:27:32.871Z,24.51
2018-09-08T10:29:59.842Z,24.51
2018-09-08T10:32:25.756Z,24.54
2018-09-08T10:34:52.157Z,24.54
2018-09-08T10:37:18.523Z,24.55
2018-09-08T10:39:44.861Z,24.55
2018-09-08T10:42:11.235Z,24.55
2018-09-08T10:44:37.564Z,24.58
2018-09-08T10:47:03.895Z,24.58
2018-09-08T10:49:30.226Z,24.58
2018-09-08T10:51:56.660Z,24.58
2018-09-08T10:54:23.208Z,24.58
2018-09-08T10:56:49.578Z,24.60
2018-09-08T10:59:15.906Z,24.61
2018-09-08T11:01:42.434Z,24.61
2018-09-08T11:04:08.596Z,24.56
2018-09-08T11:06:34.977Z,24.61
2018-09-08T11:09:01.358Z,24.61
2018-09-08T11:11:27.750Z,24.63
2018-09-08T11:13:54.104Z,24.64
2018-09-08T11:16:20.456Z,24.63
2018-09-08T11:18:46.834Z,24.64
2018-09-08T11:21:13.178Z,24.64
2018-09-08T11:23:39.520Z,24.64
2018-09-08T11:26:05.946Z,24.65
2018-09-08T11:28:32.308Z,24.65
2018-09-08T11:30:58.636Z,24.66
2018-09-08T11:33:24.964Z,24.66
2018-09-08T11:35:51.333Z,24.67
2018-09-08T11:38:17.839Z,24.67
2018-09-08T11:40:44.063Z,24.66
2018-09-08T11:43:10.461Z,24.68
2018-09-08T11:45:36.811Z,24.68
2018-09-08T11:48:03.132Z,24.68
2018-09-08T11:50:29.480Z,24.67
2018-09-08T11:52:55.931Z,24.66
2018-09-08T11:55:22.227Z,24.68
2018-09-08T11:57:48.576Z,24.67
2018-09-08T12:00:14.952Z,24.64
2018-09-08T12:02:41.275Z,24.67
2018-09-08T12:05:07.637Z,24.66
2018-09-08T12:07:33.965Z,24.65
2018-09-08T12:10:00.306Z,24.66
2018-09-08T12:12:26.801Z,24.66
2018-09-08T12:14:53.176Z,24.64
2018-09-08T12:17:19.509Z,24.64
2018-09-08T12:19:45.842Z,24.62
2018-09-08T12:22:12.214Z,24.64
2018-09-08T12:24:38.600Z,24.63
2018-09-08T12:27:04.957Z,24.60
2018-09-08T12:29:31.323Z,24.61
2018-09-08T12:31:57.657Z,24.62
2018-09-08T12:34:24.035Z,24.60
2018-09-08T12:36:50.355Z,24.60
2018-09-08T12:39:16.687Z,24.58
2018-09-08T12:41:43.071Z,24.59
2018-09-08T12:44:09.436Z,24.59
2018-09-08T12:46:35.777Z,24.58
2018-09-08T12:49:02.109Z,24.57
2018-09-08T12:51:28.499Z,24.57
2018-09-08T12:53:54.831Z,24.56
2018-09-08T12:56:21.207Z,24.56
2018-09-08T12:58:47.565Z,24.54
2018-09-08T13:01:13.962Z,24.54
2018-09-08T13:03:40.292Z,24.55
2018-09-08T13:06:06.620Z,24.58
2018-09-08T13:08:32.965Z,24.57
2018-09-08T13:10:59.306Z,24.56
2018-09-08T13:13:25.680Z,24.56
2018-09-08T13:15:52.019Z,24.53
2018-09-08T13:18:18.399Z,24.55
2018-09-08T13:20:44.720Z,24.55
2018-09-08T13:23:11.050Z,24.55
2018-09-08T13:25:37.401Z,24.53
2018-09-08T13:28:03.767Z,24.55
2018-09-08T13:30:30.099Z,24.56
2018-09-08T13:32:56.428Z,24.54
2018-09-08T13:35:22.747Z,24.55
2018-09-08T13:37:49.056Z,24.55
2018-09-08T13:40:15.375Z,24.54
2018-09-08T13:42:41.727Z,24.54
2018-09-08T13:45:08.083Z,24.53
2018-09-08T13:47:34.431Z,24.54
2018-09-08T13:50:00.844Z,24.55
2018-09-08T13:52:27.226Z,24.58
2018-09-08T13:54:53.558Z,24.53
2018-09-08T13:57:19.929Z,24.53
2018-09-08T13:59:46.265Z,24.55
2018-09-08T14:02:12.603Z,24.55
2018-09-08T14:04:38.978Z,24.54
2018-09-08T14:07:05.338Z,24.55
2018-09-08T14:09:31.680Z,24.57
2018-09-08T14:11:58.015Z,24.57
2018-09-08T14:14:24.372Z,24.57
2018-09-08T14:16:50.797Z,24.58
2018-09-08T14:19:17.135Z,24.59
2018-09-08T14:21:43.499Z,24.58
2018-09-08T14:24:09.827Z,24.58
2018-09-08T14:26:36.165Z,24.58
2018-09-08T14:29:02.547Z,24.55
2018-09-08T14:31:28.883Z,24.56
2018-09-08T14:33:55.544Z,24.58
2018-09-08T14:36:21.873Z,24.57
2018-09-08T14:38:48.247Z,24.58
2018-09-08T14:41:14.667Z,24.58
2018-09-08T14:43:41.044Z,24.59
2018-09-08T14:46:07.476Z,24.60
2018-09-08T14:48:33.850Z,24.60
2018-09-08T14:51:00.188Z,24.57
2018-09-08T14:53:26.539Z,24.58
2018-09-08T14:55:52.855Z,24.58
2018-09-08T14:58:19.186Z,24.59
2018-09-08T15:00:45.561Z,24.59
2018-09-08T15:03:11.904Z,24.60
2018-09-08T15:05:38.329Z,24.61
2018-09-08T15:08:04.679Z,24.59
2018-09-08T15:10:31.037Z,24.61
2018-09-08T15:12:57.386Z,24.61
2018-09-08T15:15:23.860Z,24.53
2018-09-08T15:17:50.227Z,24.59
2018-09-08T15:20:16.560Z,24.58
2018-09-08T15:22:42.971Z,24.58
2018-09-08T15:25:09.335Z,24.58
2018-09-08T15:27:35.651Z,24.58
2018-09-08T15:30:02.027Z,24.57
2018-09-08T15:32:28.360Z,24.56
2018-09-08T15:34:54.688Z,24.57
2018-09-08T15:37:21.019Z,24.55
2018-09-08T15:39:47.400Z,24.55
2018-09-08T15:42:13.747Z,24.55
2018-09-08T15:44:40.096Z,24.55
2018-09-08T15:47:06.505Z,24.53
2018-09-08T15:49:32.842Z,24.54
2018-09-08T15:51:59.222Z,24.53
2018-09-08T15:54:25.577Z,24.51
2018-09-08T15:56:51.908Z,24.51
2018-09-08T15:59:18.266Z,24.48
2018-09-08T16:01:44.636Z,24.52
2018-09-08T16:04:10.986Z,24.50
2018-09-08T16:06:37.360Z,24.49
2018-09-08T16:09:03.694Z,24.48
2018-09-08T16:11:30.132Z,24.51
2018-09-08T16:13:56.422Z,24.46
2018-09-08T16:16:22.759Z,24.47
2018-09-08T16:18:49.162Z,24.43
2018-09-08T16:21:15.496Z,24.49
2018-09-08T16:23:41.844Z,24.48
2018-09-08T16:26:08.210Z,24.44
2018-09-08T16:28:34.546Z,24.44
2018-09-08T16:31:00.917Z,24.44
2018-09-08T16:33:27.242Z,24.43
2018-09-08T16:35:53.579Z,24.49
2018-09-08T16:38:19.899Z,24.45
2018-09-08T16:40:46.233Z,24.43
2018-09-08T16:43:12.575Z,24.41
2018-09-08T16:45:38.890Z,24.38
2018-09-08T16:48:05.323Z,24.38
2018-09-08T16:50:31.681Z,24.37
2018-09-08T16:52:58.065Z,24.35
2018-09-08T16:55:24.411Z,24.33
2018-09-08T16:57:50.814Z,24.33
2018-09-08T17:00:17.142Z,24.32
2018-09-08T17:02:43.545Z,24.33
2018-09-08T17:05:09.911Z,24.29
2018-09-08T17:07:36.537Z,24.25
2018-09-08T17:10:02.894Z,24.25
2018-09-08T17:12:29.269Z,24.25
2018-09-08T17:14:55.607Z,24.23
2018-09-08T17:17:21.951Z,24.21
2018-09-08T17:19:48.285Z,24.22
2018-09-08T17:22:14.644Z,24.24
2018-09-08T17:24:40.985Z,24.20
2018-09-08T17:27:07.332Z,24.18
2018-09-08T17:29:33.656Z,24.19
2018-09-08T17:32:00.006Z,24.18
2018-09-08T17:34:26.396Z,24.17
2018-09-08T17:36:52.788Z,24.13
2018-09-08T17:39:19.122Z,24.12
2018-09-08T17:41:45.453Z,24.09
2018-09-08T17:44:11.783Z,24.10
2018-09-08T17:46:38.134Z,24.12
2018-09-08T17:49:04.481Z,24.12
2018-09-08T17:51:30.895Z,24.10
2018-09-08T17:53:57.200Z,24.09
2018-09-08T17:56:23.555Z,24.08
2018-09-08T17:58:49.948Z,24.07
2018-09-08T18:01:16.341Z,24.10
2018-09-08T18:03:42.927Z,24.08
2018-09-08T18:06:09.299Z,24.08
2018-09-08T18:08:35.696Z,24.03
2018-09-08T18:11:02.044Z,24.02
2018-09-08T18:13:28.360Z,24.02
2018-09-08T18:15:54.693Z,24.03
2018-09-08T18:18:21.023Z,24.05
2018-09-08T18:20:47.359Z,23.99
2018-09-08T18:23:13.704Z,24.03
2018-09-08T18:25:40.075Z,24.01
2018-09-08T18:28:06.513Z,24.07
2018-09-08T18:30:32.836Z,23.98
2018-09-08T18:32:59.286Z,24.01
2018-09-08T18:35:25.603Z,23.97
2018-09-08T18:37:51.972Z,24.03
2018-09-08T18:40:18.327Z,24.01
2018-09-08T18:42:44.783Z,23.97
2018-09-08T18:45:11.131Z,24.01
2018-09-08T18:47:37.511Z,23.94
2018-09-08T18:50:03.855Z,23.92
2018-09-08T18:52:30.236Z,23.94
2018-09-08T18:54:56.694Z,24.00
2018-09-08T18:57:23.034Z,23.94
2018-09-08T18:59:49.631Z,23.93
2018-09-08T19:02:15.991Z,23.96
2018-09-08T19:04:42.369Z,23.92
2018-09-08T19:07:08.714Z,23.89
2018-09-08T19:09:35.051Z,23.93
2018-09-08T19:12:01.428Z,23.94
2018-09-08T19:14:27.743Z,23.93
2018-09-08T19:16:54.123Z,23.91
2018-09-08T19:19:20.460Z,23.92
2018-09-08T19:21:46.838Z,23.90
2018-09-08T19:24:13.216Z,23.92
2018-09-08T19:26:39.623Z,23.94
2018-09-08T19:29:06.013Z,23.93
2018-09-08T19:31:32.395Z,23.93
2018-09-08T19:33:58.908Z,23.93
2018-09-08T19:36:25.253Z,23.90
2018-09-08T19:38:51.584Z,23.90
2018-09-08T19:41:18.076Z,23.91
2018-09-08T19:43:44.408Z,23.92
2018-09-08T19:46:10.782Z,23.90
2018-09-08T19:48:37.172Z,23.89
2018-09-08T19:51:03.560Z,23.86
2018-09-08T19:53:29.900Z,23.82
2018-09-08T19:55:56.293Z,23.84
2018-09-08T19:58:22.651Z,23.85
2018-09-08T20:00:49.063Z,23.82
2018-09-08T20:03:15.419Z,23.85
2018-09-08T20:05:41.827Z,23.84
2018-09-08T20:08:08.169Z,23.86
2018-09-08T20:10:34.546Z,23.83
2018-09-08T20:13:00.921Z,23.83
2018-09-08T20:15:27.329Z,23.83
2018-09-08T20:17:53.711Z,23.82
2018-09-08T20:20:20.055Z,23.82
2018-09-08T20:22:46.430Z,23.84
2018-09-08T20:25:12.796Z,23.83
2018-09-08T20:27:39.199Z,23.79
2018-09-08T20:30:05.551Z,23.79
2018-09-08T20:32:31.908Z,23.83
2018-09-08T20:34:58.345Z,23.81
2018-09-08T20:37:24.671Z,23.78
2018-09-08T20:39:51.076Z,23.80
2018-09-08T20:42:17.455Z,23.79
2018-09-08T20:44:43.842Z,23.78
2018-09-08T20:47:10.172Z,23.77
2018-09-08T20:49:36.648Z,23.78
2018-09-08T20:52:02.982Z,23.76
2018-09-08T20:54:29.312Z,23.76
2018-09-08T20:56:55.643Z,23.75
2018-09-08T20:59:21.972Z,23.76
2018-09-08T21:01:48.340Z,23.75
2018-09-08T21:04:14.667Z,23.75
2018-09-08T21:06:40.993Z,23.76
2018-09-08T21:09:07.329Z,23.75
2018-09-08T21:11:33.689Z,23.76
2018-09-08T21:14:00.092Z,23.76
2018-09-08T21:16:26.453Z,23.75
2018-09-08T21:18:52.787Z,23.75
2018-09-08T21:21:19.104Z,23.74
2018-09-08T21:23:45.463Z,23.72
2018-09-08T21:26:11.796Z,23.72
2018-09-08T21:28:38.128Z,23.73
2018-09-08T21:31:04.935Z,23.71
2018-09-08T21:33:31.284Z,23.68
2018-09-08T21:35:57.605Z,23.71
2018-09-08T21:38:23.980Z,23.72
2018-09-08T21:40:50.307Z,23.70
2018-09-08T21:43:16.674Z,23.70
2018-09-08T21:45:43.071Z,23.68
2018-09-08T21:48:09.432Z,23.69
2018-09-08T21:50:35.824Z,23.71
2018-09-08T21:53:02.162Z,23.67
2018-09-08T21:55:28.491Z,23.67
2018-09-08T21:57:55.000Z,23.68
2018-09-08T22:00:21.327Z,23.67
2018-09-08T22:02:47.725Z,23.67
2018-09-08T22:05:14.050Z,23.67
2018-09-08T22:07:40.415Z,23.66
2018-09-08T22:10:06.743Z,23.67
2018-09-08T22:12:33.152Z,23.63
2018-09-08T22:14:59.508Z,23.66
2018-09-08T22:17:25.888Z,23.62
2018-09-08T22:19:52.213Z,23.65
2018-09-08T22:22:18.566Z,23.61
2018-09-08T22:24:44.945Z,23.64
2018-09-08T22:27:11.283Z,23.66
2018-09-08T22:29:37.763Z,23.62
2018-09-08T22:32:04.092Z,23.63
2018-09-08T22:34:30.447Z,23.61
2018-09-08T22:36:56.801Z,23.61
2018-09-08T22:39:23.268Z,23.61
2018-09-08T22:41:49.699Z,23.61
2018-09-08T22:44:16.033Z,23.56
2018-09-08T22:46:42.437Z,23.61
2018-09-08T22:49:08.905Z,23.61
2018-09-08T22:51:35.237Z,23.55
2018-09-08T22:54:01.583Z,23.54
2018-09-08T22:56:27.956Z,23.56
2018-09-08T22:58:54.271Z,23.55
2018-09-08T23:01:20.627Z,23.56
2018-09-08T23:03:46.953Z,23.55
2018-09-08T23:06:13.378Z,23.53
2018-09-08T23:08:39.720Z,23.52
2018-09-08T23:11:06.096Z,23.53
2018-09-08T23:13:32.480Z,23.55
2018-09-08T23:15:58.805Z,23.51
2018-09-08T23:18:25.176Z,23.55
2018-09-08T23:20:51.540Z,23.51
2018-09-08T23:23:17.885Z,23.51
2018-09-08T23:25:44.258Z,23.50
2018-09-08T23:28:10.584Z,23.47
2018-09-08T23:30:36.924Z,23.48
2018-09-08T23:33:03.244Z,23.50
2018-09-08T23:35:29.577Z,23.49
2018-09-08T23:37:55.924Z,23.48
2018-09-08T23:40:22.283Z,23.47
2018-09-08T23:42:48.608Z,23.47
2018-09-08T23:45:14.982Z,23.47
2018-09-08T23:47:41.334Z,23.49
2018-09-08T23:50:07.708Z,23.46
2018-09-08T23:52:34.035Z,23.48
2018-09-08T23:55:00.355Z,23.47
2018-09-08T23:57:26.721Z,23.43
2018-09-08T23:59:53.044Z,23.43
